createdAt,value
2018-11-12T00:02:24.078Z,50.37
2018-11-12T00:04:54.174Z,49.63
2018-11-12T00:07:24.578Z,46.80
2018-11-12T00:09:54.733Z,45.97
2018-11-12T00:12:25.008Z,49.07
2018-11-12T00:14:55.328Z,47.43
2018-11-12T00:17:25.636Z,44.90
2018-11-12T00:19:55.767Z,43.67
2018-11-12T00:22:25.903Z,45.30
2018-11-12T00:24:56.117Z,46.27
2018-11-12T00:27:26.628Z,44.37
2018-11-12T00:29:57.041Z,45.47
2018-11-12T00:32:27.803Z,43.93
2018-11-12T00:34:59.203Z,42.50
2018-11-12T00:37:29.863Z,42.23
2018-11-12T00:40:01.468Z,45.83
2018-11-12T00:42:31.837Z,43.27
2018-11-12T00:45:01.978Z,44.63
2018-11-12T00:47:32.317Z,45.53
2018-11-12T00:50:02.288Z,43.93
2018-11-12T00:52:32.552Z,44.43
2018-11-12T00:55:02.893Z,44.93
2018-11-12T00:57:32.927Z,44.97
2018-11-12T01:00:03.088Z,42.97
2018-11-12T01:02:33.213Z,44.73
2018-11-12T01:05:03.229Z,45.00
2018-11-12T01:07:33.237Z,44.10
2018-11-12T01:10:03.328Z,45.03
2018-11-12T01:12:33.408Z,45.60
2018-11-12T01:15:03.678Z,43.73
2018-11-12T01:17:33.818Z,45.33
2018-11-12T01:20:04.048Z,45.13
2018-11-12T01:22:34.112Z,45.80
2018-11-12T01:25:04.288Z,45.50
2018-11-12T01:27:34.463Z,43.70
2018-11-12T01:30:04.937Z,49.17
2018-11-12T01:32:35.168Z,49.57
2018-11-12T01:35:06.138Z,48.50
2018-11-12T01:37:36.183Z,47.60
2018-11-12T01:40:06.873Z,51.67
2018-11-12T01:42:37.033Z,49.37
2018-11-12T01:45:09.513Z,46.67
2018-11-12T01:47:39.733Z,49.00
2018-11-12T01:50:11.308Z,48.90
2018-11-12T01:52:41.892Z,50.93
2018-11-12T01:55:13.123Z,50.90
2018-11-12T01:57:43.342Z,48.50
2018-11-12T02:00:16.788Z,50.30
2018-11-12T02:02:48.288Z,50.23
2018-11-12T02:05:18.952Z,52.23
2018-11-12T02:07:49.176Z,49.60
2018-11-12T02:10:19.796Z,47.80
2018-11-12T02:12:49.983Z,51.00
2018-11-12T02:15:21.148Z,49.90
2018-11-12T02:17:51.437Z,51.63
2018-11-12T02:20:22.208Z,51.40
2018-11-12T02:22:52.274Z,49.87
2018-11-12T02:25:22.317Z,49.77
2018-11-12T02:27:52.517Z,50.67
2018-11-12T02:30:27.682Z,50.00
2018-11-12T02:32:57.975Z,49.87
2018-11-12T02:35:28.277Z,51.37
2018-11-12T02:37:58.392Z,47.93
2018-11-12T02:40:28.460Z,50.13
2018-11-12T02:42:58.678Z,49.63
2018-11-12T02:45:28.888Z,48.93
2018-11-12T02:47:59.048Z,47.40
2018-11-12T02:50:29.033Z,48.17
2018-11-12T02:52:59.158Z,45.87
2018-11-12T02:55:29.287Z,46.67
2018-11-12T02:57:59.530Z,47.60
2018-11-12T03:00:29.783Z,46.73
2018-11-12T03:02:59.938Z,45.43
2018-11-12T03:05:30.008Z,45.77
2018-11-12T03:07:59.928Z,46.70
2018-11-12T03:10:30.033Z,47.97
2018-11-12T03:13:00.423Z,49.17
2018-11-12T03:15:30.613Z,49.87
2018-11-12T03:18:00.753Z,50.27
2018-11-12T03:20:31.018Z,50.80
2018-11-12T03:23:01.298Z,49.30
2018-11-12T03:25:31.634Z,49.17
2018-11-12T03:28:01.832Z,49.17
2018-11-12T03:30:31.966Z,49.13
2018-11-12T03:33:01.873Z,51.00
2018-11-12T03:35:32.049Z,48.67
2018-11-12T03:38:02.078Z,49.73
2018-11-12T03:40:32.234Z,49.07
2018-11-12T03:43:02.447Z,47.27
2018-11-12T03:45:32.598Z,48.90
2018-11-12T03:48:02.713Z,48.60
2018-11-12T03:50:32.837Z,50.27
2018-11-12T03:53:02.778Z,50.97
2018-11-12T03:55:33.073Z,48.73
2018-11-12T03:58:03.078Z,48.47
2018-11-12T04:00:33.931Z,48.77
2018-11-12T04:03:04.008Z,47.33
2018-11-12T04:05:34.051Z,49.73
2018-11-12T04:08:04.303Z,47.90
2018-11-12T04:10:34.517Z,50.07
2018-11-12T04:13:04.503Z,50.40
2018-11-12T04:15:34.423Z,50.93
2018-11-12T04:18:04.628Z,49.73
2018-11-12T04:20:34.628Z,50.93
2018-11-12T04:23:05.676Z,51.77
2018-11-12T04:25:37.370Z,50.03
2018-11-12T04:28:07.513Z,49.17
2018-11-12T04:30:37.744Z,51.17
2018-11-12T04:33:07.844Z,52.00
2018-11-12T04:35:38.183Z,49.80
2018-11-12T04:38:08.294Z,49.00
2018-11-12T04:40:38.368Z,48.20
2018-11-12T04:43:08.443Z,52.27
2018-11-12T04:45:38.694Z,49.43
2018-11-12T04:48:08.847Z,51.00
2018-11-12T04:50:39.008Z,50.70
2018-11-12T04:53:09.268Z,49.43
2018-11-12T04:55:39.465Z,45.83
2018-11-12T04:58:09.603Z,47.47
2018-11-12T05:00:39.686Z,46.77
2018-11-12T05:03:09.983Z,48.17
2018-11-12T05:05:40.049Z,47.00
2018-11-12T05:08:10.138Z,48.03
2018-11-12T05:10:40.268Z,47.33
2018-11-12T05:13:10.354Z,47.83
2018-11-12T05:15:40.438Z,46.70
2018-11-12T05:18:10.613Z,47.03
2018-11-12T05:20:40.909Z,46.83
2018-11-12T05:23:11.068Z,45.00
2018-11-12T05:25:41.104Z,46.77
2018-11-12T05:28:11.104Z,48.30
2018-11-12T05:30:41.428Z,47.23
2018-11-12T05:33:11.428Z,46.67
2018-11-12T05:35:41.629Z,45.90
2018-11-12T05:38:11.782Z,45.33
2018-11-12T05:40:41.813Z,46.60
2018-11-12T05:43:11.831Z,44.33
2018-11-12T05:45:42.024Z,45.60
2018-11-12T05:48:12.055Z,45.80
2018-11-12T05:50:42.573Z,45.30
2018-11-12T05:53:12.508Z,43.80
2018-11-12T05:55:42.458Z,44.17
2018-11-12T05:58:12.505Z,43.07
2018-11-12T06:00:42.552Z,41.80
2018-11-12T06:03:12.648Z,41.00
2018-11-12T06:05:42.749Z,41.87
2018-11-12T06:08:12.803Z,40.33
2018-11-12T06:10:42.777Z,42.30
2018-11-12T06:13:12.773Z,41.80
2018-11-12T06:15:42.803Z,41.47
2018-11-12T06:18:13.113Z,41.30
2018-11-12T06:20:43.284Z,41.37
2018-11-12T06:23:13.383Z,40.83
2018-11-12T06:25:43.530Z,39.37
2018-11-12T06:28:13.618Z,40.13
2018-11-12T06:30:43.820Z,38.93
2018-11-12T06:33:13.818Z,39.40
2018-11-12T06:35:44.018Z,40.50
2018-11-12T06:38:14.444Z,40.30
2018-11-12T06:40:44.566Z,40.50
2018-11-12T06:43:14.887Z,38.97
2018-11-12T06:45:44.877Z,41.37
2018-11-12T06:48:14.704Z,40.17
2018-11-12T06:50:44.688Z,39.30
2018-11-12T06:53:14.528Z,40.53
2018-11-12T06:55:44.334Z,39.70
2018-11-12T06:58:14.123Z,40.43
2018-11-12T07:00:44.037Z,40.00
2018-11-12T07:03:13.883Z,38.13
2018-11-12T07:05:43.883Z,39.03
2018-11-12T07:08:13.748Z,35.70
2018-11-12T07:10:43.608Z,37.23
2018-11-12T07:13:13.507Z,34.33
2018-11-12T07:15:43.477Z,34.27
2018-11-12T07:18:13.268Z,35.50
2018-11-12T07:20:43.168Z,36.13
2018-11-12T07:23:12.974Z,36.23
2018-11-12T07:25:42.858Z,35.93
2018-11-12T07:28:12.638Z,36.83
2018-11-12T07:30:42.485Z,37.10
2018-11-12T07:33:12.369Z,35.70
2018-11-12T07:35:42.143Z,36.13
2018-11-12T07:38:12.014Z,35.57
2018-11-12T07:40:41.912Z,35.30
2018-11-12T07:43:12.019Z,35.53
2018-11-12T07:45:41.924Z,35.77
2018-11-12T07:48:11.732Z,37.80
2018-11-12T07:50:41.672Z,36.23
2018-11-12T07:53:11.547Z,35.03
2018-11-12T07:55:41.498Z,36.27
2018-11-12T07:58:11.263Z,35.77
2018-11-12T08:00:41.211Z,34.10
2018-11-12T08:03:12.276Z,35.57
2018-11-12T08:05:42.188Z,34.90
2018-11-12T08:08:12.034Z,35.00
2018-11-12T08:10:42.128Z,36.33
2018-11-12T08:13:11.942Z,35.93
2018-11-12T08:15:41.753Z,34.77
2018-11-12T08:18:11.718Z,34.73
2018-11-12T08:20:41.628Z,36.10
2018-11-12T08:23:11.549Z,36.93
2018-11-12T08:25:41.418Z,38.90
2018-11-12T08:28:11.243Z,38.30
2018-11-12T08:30:41.088Z,37.30
2018-11-12T08:33:10.989Z,35.90
2018-11-12T08:35:40.874Z,37.80
2018-11-12T08:38:10.973Z,36.03
2018-11-12T08:40:41.263Z,35.87
2018-11-12T08:43:11.469Z,36.17
2018-11-12T08:45:41.621Z,32.27
2018-11-12T08:48:11.725Z,31.47
2018-11-12T08:50:41.899Z,32.63
2018-11-12T08:53:12.068Z,34.13
2018-11-12T08:55:49.090Z,33.20
2018-11-12T08:58:19.735Z,33.20
2018-11-12T09:00:49.382Z,34.20
2018-11-12T09:03:19.443Z,32.00
2018-11-12T09:05:49.640Z,31.43
2018-11-12T09:08:20.018Z,33.83
2018-11-12T09:10:50.308Z,33.00
2018-11-12T09:13:20.533Z,31.43
2018-11-12T09:15:50.693Z,33.17
2018-11-12T09:18:20.788Z,33.87
2018-11-12T09:20:50.797Z,35.27
2018-11-12T09:23:20.883Z,33.57
2018-11-12T09:25:51.107Z,35.30
2018-11-12T09:28:21.348Z,34.77
2018-11-12T09:30:52.957Z,36.80
2018-11-12T09:33:21.883Z,35.57
2018-11-12T09:35:52.047Z,34.70
2018-11-12T09:38:22.320Z,35.30
2018-11-12T09:40:52.368Z,35.97
2018-11-12T09:43:22.559Z,37.17
2018-11-12T09:45:52.772Z,37.57
2018-11-12T09:48:23.123Z,36.97
2018-11-12T09:50:53.383Z,35.83
2018-11-12T09:53:23.550Z,38.80
2018-11-12T09:55:53.672Z,38.83
2018-11-12T09:58:23.693Z,37.37
2018-11-12T10:00:54.226Z,35.50
2018-11-12T10:03:27.183Z,32.97
2018-11-12T10:05:59.453Z,36.03
2018-11-12T10:08:30.309Z,37.90
2018-11-12T10:11:02.755Z,38.13
2018-11-12T10:13:33.571Z,38.30
2018-11-12T10:16:05.357Z,37.87
2018-11-12T10:18:31.255Z,36.50
2018-11-12T10:21:01.533Z,35.27
2018-11-12T10:23:31.763Z,36.03
2018-11-12T10:26:02.111Z,37.23
2018-11-12T10:28:32.208Z,37.00
2018-11-12T10:31:02.308Z,32.67
2018-11-12T10:33:32.273Z,35.20
2018-11-12T10:36:02.443Z,31.20
2018-11-12T10:38:35.293Z,33.07
2018-11-12T10:41:05.404Z,29.67
2018-11-12T10:43:35.573Z,29.30
2018-11-12T10:46:06.185Z,28.27
2018-11-12T10:48:36.453Z,27.10
2018-11-12T10:51:07.917Z,29.10
2018-11-12T10:53:38.142Z,28.80
2018-11-12T10:56:08.437Z,26.07
2018-11-12T10:58:38.661Z,27.00
2018-11-12T11:01:13.568Z,26.50
2018-11-12T11:03:51.170Z,30.33
2018-11-12T11:06:22.326Z,29.07
2018-11-12T11:08:52.493Z,31.33
2018-11-12T11:11:22.527Z,34.80
2018-11-12T11:13:52.606Z,29.17
2018-11-12T11:16:23.238Z,28.20
2018-11-12T11:18:53.174Z,25.63
2018-11-12T11:21:29.418Z,25.37
2018-11-12T11:23:59.474Z,23.43
2018-11-12T11:26:29.622Z,23.43
2018-11-12T11:28:59.862Z,21.87
2018-11-12T11:31:30.011Z,21.80
2018-11-12T11:34:00.197Z,22.57
2018-11-12T11:36:30.462Z,23.13
2018-11-12T11:39:00.783Z,24.47
2018-11-12T11:41:30.949Z,22.80
2018-11-12T11:44:01.186Z,23.20
2018-11-12T11:46:31.273Z,22.13
2018-11-12T11:49:01.427Z,23.37
2018-11-12T11:51:31.419Z,24.87
2018-11-12T11:54:01.713Z,17.17
2018-11-12T11:56:32.164Z,18.73
2018-11-12T11:59:03.186Z,20.17
2018-11-12T12:01:33.877Z,18.53
2018-11-12T12:04:04.353Z,15.90
2018-11-12T12:06:34.498Z,13.70
2018-11-12T12:09:05.258Z,13.60
2018-11-12T12:11:35.623Z,12.43
2018-11-12T12:14:05.773Z,12.77
2018-11-12T12:16:35.833Z,11.33
2018-11-12T12:19:06.172Z,12.60
2018-11-12T12:21:36.326Z,12.63
2018-11-12T12:24:06.753Z,12.17
2018-11-12T12:26:37.033Z,12.00
2018-11-12T12:29:07.129Z,13.03
2018-11-12T12:31:37.228Z,12.53
2018-11-12T12:34:07.508Z,14.27
2018-11-12T12:36:37.749Z,13.73
2018-11-12T12:39:11.051Z,12.00
2018-11-12T12:41:41.208Z,11.80
2018-11-12T12:44:11.444Z,12.27
2018-11-12T12:46:41.684Z,12.17
2018-11-12T12:49:11.789Z,12.00
2018-11-12T12:51:41.986Z,12.53
2018-11-12T12:54:12.328Z,13.40
2018-11-12T12:56:42.603Z,14.37
2018-11-12T12:59:12.943Z,14.13
2018-11-12T13:01:43.307Z,15.50
2018-11-12T13:04:13.474Z,14.93
2018-11-12T13:06:43.845Z,13.67
2018-11-12T13:09:14.209Z,13.80
2018-11-12T13:11:44.270Z,12.17
2018-11-12T13:14:14.529Z,11.37
2018-11-12T13:16:44.568Z,12.77
2018-11-12T13:19:14.559Z,14.17
2018-11-12T13:21:44.689Z,13.20
2018-11-12T13:24:14.903Z,13.40
2018-11-12T13:26:44.931Z,13.20
2018-11-12T13:29:15.293Z,12.43
2018-11-12T13:31:45.589Z,12.80
2018-11-12T13:34:15.719Z,13.00
2018-11-12T13:36:45.854Z,12.50
2018-11-12T13:39:16.327Z,13.27
2018-11-12T13:41:46.544Z,15.13
2018-11-12T13:44:16.894Z,12.67
2018-11-12T13:46:54.224Z,12.23
2018-11-12T13:49:24.929Z,12.73
2018-11-12T13:51:55.698Z,13.13
2018-11-12T13:57:14.336Z,14.97
2018-11-12T13:59:44.664Z,14.20
2018-11-12T14:02:15.224Z,14.43
2018-11-12T14:04:45.529Z,14.40
2018-11-12T14:07:15.773Z,16.00
2018-11-12T14:09:46.118Z,17.60
2018-11-12T14:12:16.359Z,14.77
2018-11-12T14:14:46.514Z,16.03
2018-11-12T14:17:16.854Z,17.13
2018-11-12T14:19:47.534Z,19.27
2018-11-12T14:22:17.789Z,18.97
2018-11-12T14:24:47.943Z,18.20
2018-11-12T14:27:18.107Z,18.83
2018-11-12T14:29:48.888Z,18.70
2018-11-12T14:32:19.234Z,18.43
2018-11-12T14:34:49.484Z,17.80
2018-11-12T14:37:19.558Z,17.80
2018-11-12T14:39:50.012Z,19.03
2018-11-12T14:42:20.054Z,17.60
2018-11-12T14:44:50.489Z,17.00
2018-11-12T14:47:20.704Z,17.60
2018-11-12T14:49:50.761Z,18.43
2018-11-12T14:52:21.049Z,16.83
2018-11-12T14:54:51.360Z,17.57
2018-11-12T14:57:21.574Z,16.00
2018-11-12T14:59:51.810Z,17.77
2018-11-12T15:02:22.049Z,18.17
2018-11-12T15:04:52.109Z,17.57
2018-11-12T15:07:22.599Z,17.50
2018-11-12T15:09:52.924Z,16.50
2018-11-12T15:12:23.053Z,17.60
2018-11-12T15:14:53.198Z,15.20
2018-11-12T15:17:23.518Z,15.10
2018-11-12T15:19:53.689Z,14.50
2018-11-12T15:22:23.643Z,13.77
2018-11-12T15:24:53.928Z,16.10
2018-11-12T15:27:24.083Z,14.83
2018-11-12T15:29:54.133Z,14.50
2018-11-12T15:32:24.329Z,13.37
2018-11-12T15:34:54.413Z,13.00
2018-11-12T15:37:24.584Z,14.03
2018-11-12T15:39:54.823Z,14.27
2018-11-12T15:42:25.043Z,13.20
2018-11-12T15:44:55.344Z,15.13
2018-11-12T15:47:26.188Z,14.53
2018-11-12T15:49:56.479Z,17.53
2018-11-12T15:52:27.268Z,17.50
2018-11-12T15:54:57.768Z,16.27
2018-11-12T15:57:27.990Z,18.00
2018-11-12T15:59:58.068Z,18.83
2018-11-12T16:02:28.168Z,19.37
2018-11-12T16:04:58.653Z,19.67
2018-11-12T16:07:28.683Z,19.90
2018-11-12T16:09:59.029Z,19.40
2018-11-12T16:12:29.174Z,18.87
2018-11-12T16:14:59.524Z,18.87
2018-11-12T16:17:29.813Z,19.07
2018-11-12T16:19:59.877Z,18.70
2018-11-12T16:22:30.153Z,19.67
2018-11-12T16:25:00.213Z,19.10
2018-11-12T16:27:30.524Z,19.33
2018-11-12T16:30:00.589Z,19.80
2018-11-12T16:32:31.043Z,19.20
2018-11-12T16:35:01.172Z,19.60
2018-11-12T16:37:31.629Z,19.47
2018-11-12T16:40:01.931Z,20.27
2018-11-12T16:42:32.308Z,19.27
2018-11-12T16:45:02.499Z,19.80
2018-11-12T16:47:32.609Z,19.43
2018-11-12T16:50:02.771Z,19.63
2018-11-12T16:52:32.909Z,21.83
2018-11-12T16:55:03.149Z,22.43
2018-11-12T16:57:33.274Z,22.37
2018-11-12T17:00:03.387Z,22.90
2018-11-12T17:02:33.888Z,23.53
2018-11-12T17:05:04.195Z,24.23
2018-11-12T17:07:35.524Z,24.20
2018-11-12T17:10:06.293Z,24.80
2018-11-12T17:12:36.888Z,23.03
2018-11-12T17:15:07.804Z,22.70
2018-11-12T17:17:38.470Z,23.90
2018-11-12T17:20:09.162Z,22.60
2018-11-12T17:22:39.469Z,21.53
2018-11-12T17:25:15.449Z,19.07
2018-11-12T17:27:46.295Z,21.13
2018-11-12T17:30:18.419Z,20.37
2018-11-12T17:32:49.020Z,21.03
2018-11-12T17:35:20.268Z,19.60
2018-11-12T17:37:50.719Z,19.40
2018-11-12T17:40:25.543Z,19.27
2018-11-12T17:42:56.628Z,16.60
2018-11-12T17:45:28.409Z,17.40
2018-11-12T17:47:59.411Z,19.37
2018-11-12T17:50:29.978Z,19.77
2018-11-12T17:53:00.294Z,19.63
2018-11-12T17:55:31.114Z,20.10
2018-11-12T17:58:01.281Z,18.67
2018-11-12T18:00:34.693Z,18.97
2018-11-12T18:03:05.151Z,18.03
2018-11-12T18:05:35.248Z,18.03
2018-11-12T18:08:05.463Z,17.40
2018-11-12T18:10:35.538Z,21.10
2018-11-12T18:13:06.038Z,20.50
2018-11-12T18:15:36.068Z,21.97
2018-11-12T18:18:06.908Z,20.67
2018-11-12T18:20:37.053Z,20.93
2018-11-12T18:23:07.708Z,23.67
2018-11-12T18:25:37.958Z,25.57
2018-11-12T18:28:08.248Z,25.83
2018-11-12T18:30:39.253Z,25.33
2018-11-12T18:33:09.397Z,23.77
2018-11-12T18:35:39.933Z,26.37
2018-11-12T18:38:10.324Z,24.27
2018-11-12T18:40:40.665Z,24.33
2018-11-12T18:43:10.963Z,24.10
2018-11-12T18:45:41.647Z,24.60
2018-11-12T18:48:11.623Z,24.90
2018-11-12T18:50:42.672Z,25.33
2018-11-12T18:53:12.844Z,25.20
2018-11-12T18:55:43.134Z,26.43
2018-11-12T18:58:13.377Z,25.80
2018-11-12T19:00:43.532Z,25.60
2018-11-12T19:03:13.758Z,25.63
2018-11-12T19:05:43.858Z,25.70
2018-11-12T19:08:14.173Z,27.27
2018-11-12T19:10:44.428Z,27.00
2018-11-12T19:13:14.893Z,28.23
2018-11-12T19:15:45.242Z,27.40
2018-11-12T19:18:15.757Z,27.57
2018-11-12T19:20:47.158Z,29.80
2018-11-12T19:23:17.543Z,28.13
2018-11-12T19:25:47.742Z,29.87
2018-11-12T19:28:18.135Z,29.00
2018-11-12T19:30:48.708Z,28.73
2018-11-12T19:33:19.243Z,26.23
2018-11-12T19:35:49.686Z,26.43
2018-11-12T19:38:20.097Z,28.00
2018-11-12T19:40:50.386Z,28.00
2018-11-12T19:43:20.657Z,28.70
2018-11-12T19:45:50.737Z,29.07
2018-11-12T19:48:21.248Z,34.30
2018-11-12T19:50:51.642Z,28.63
2018-11-12T19:53:22.008Z,31.93
2018-11-12T19:55:52.639Z,29.00
2018-11-12T19:58:23.160Z,26.93
2018-11-12T20:00:53.282Z,28.50
2018-11-12T20:03:24.675Z,28.57
2018-11-12T20:05:55.273Z,27.67
2018-11-12T20:08:26.573Z,26.53
2018-11-12T20:10:56.862Z,28.00
2018-11-12T20:13:26.998Z,29.73
2018-11-12T20:15:57.409Z,29.20
2018-11-12T20:18:28.939Z,28.97
2018-11-12T20:20:59.253Z,29.70
2018-11-12T20:23:29.584Z,29.83
2018-11-12T20:25:59.823Z,28.03
2018-11-12T20:28:30.353Z,28.40
2018-11-12T20:31:00.959Z,29.00
2018-11-12T20:33:31.718Z,30.00
2018-11-12T20:36:01.810Z,28.83
2018-11-12T20:38:32.382Z,31.17
2018-11-12T20:41:02.714Z,30.40
2018-11-12T20:43:33.014Z,28.87
2018-11-12T20:46:03.284Z,29.27
2018-11-12T20:48:34.681Z,29.97
2018-11-12T20:51:05.165Z,31.47
2018-11-12T20:53:35.684Z,28.73
2018-11-12T20:56:06.584Z,29.07
2018-11-12T20:58:37.360Z,28.77
2018-11-12T21:01:08.212Z,29.27
2018-11-12T21:03:39.162Z,29.70
2018-11-12T21:06:09.674Z,29.77
2018-11-12T21:08:40.164Z,31.93
2018-11-12T21:11:10.861Z,29.57
2018-11-12T21:13:41.474Z,30.13
2018-11-12T21:16:12.036Z,29.87
2018-11-12T21:18:42.465Z,32.23
2018-11-12T21:21:12.884Z,30.57
2018-11-12T21:23:43.300Z,30.90
2018-11-12T21:26:13.610Z,31.40
2018-11-12T21:28:44.264Z,30.87
2018-11-12T21:31:14.986Z,24.97
2018-11-12T21:33:45.605Z,25.20
2018-11-12T21:36:16.311Z,27.67
2018-11-12T21:38:46.640Z,27.87
2018-11-12T21:41:17.054Z,28.97
2018-11-12T21:43:47.672Z,27.70
2018-11-12T21:46:17.997Z,26.10
2018-11-12T21:48:48.614Z,27.67
2018-11-12T21:51:19.584Z,27.03
2018-11-12T21:53:50.880Z,28.27
2018-11-12T21:56:21.135Z,27.97
2018-11-12T21:58:51.749Z,27.23
2018-11-12T22:01:22.015Z,27.43
2018-11-12T22:03:52.429Z,26.30
2018-11-12T22:06:22.969Z,27.20
2018-11-12T22:08:53.630Z,28.43
2018-11-12T22:11:23.889Z,27.73
2018-11-12T22:13:53.984Z,26.30
2018-11-12T22:16:24.692Z,28.70
2018-11-12T22:18:55.395Z,26.40
2018-11-12T22:21:25.984Z,26.33
2018-11-12T22:23:56.389Z,27.23
2018-11-12T22:26:26.710Z,27.67
2018-11-12T22:28:57.014Z,26.23
2018-11-12T22:31:26.990Z,27.13
2018-11-12T22:33:57.295Z,24.27
2018-11-12T22:36:27.630Z,25.27
2018-11-12T22:38:57.880Z,26.37
2018-11-12T22:41:28.360Z,26.87
2018-11-12T22:43:58.649Z,25.90
2018-11-12T22:46:28.905Z,25.13
2018-11-12T22:48:59.584Z,24.90
2018-11-12T22:51:29.904Z,24.83
2018-11-12T22:54:00.028Z,24.97
2018-11-12T22:56:30.209Z,24.10
2018-11-12T22:59:00.403Z,23.93
2018-11-12T23:01:30.780Z,25.27
2018-11-12T23:04:01.069Z,24.53
2018-11-12T23:06:31.309Z,27.53
2018-11-12T23:09:01.495Z,25.30
2018-11-12T23:11:31.789Z,25.80
2018-11-12T23:14:01.885Z,25.57
2018-11-12T23:16:32.169Z,28.03
2018-11-12T23:19:02.519Z,28.00
2018-11-12T23:21:32.689Z,27.03
2018-11-12T23:24:03.009Z,25.20
2018-11-12T23:26:33.184Z,27.53
2018-11-12T23:29:03.399Z,26.53
2018-11-12T23:31:33.540Z,25.47
2018-11-12T23:34:03.935Z,26.13
2018-11-12T23:36:33.990Z,24.07
2018-11-12T23:39:05.130Z,25.47
2018-11-12T23:41:35.264Z,26.20
2018-11-12T23:44:05.464Z,24.43
2018-11-12T23:46:35.687Z,25.67
2018-11-12T23:49:05.944Z,26.40
2018-11-12T23:51:36.104Z,27.80
2018-11-12T23:54:06.264Z,26.77
2018-11-12T23:56:36.541Z,26.17
2018-11-12T23:59:07.194Z,24.83
